Terminal Aerodrome Forecast
Issued by NWS Goodland, KS

Home | Current Version | Previous Version | Text Only | Print | Product List | Glossary On
Versions: 1 2 3 4 5 6 7 8 9 10 11 12 13 14 15 16 17 18 19 20 21 22
000
FTUS43 KGLD 160526
TAFGLD
TAF
KGLD 160526Z 1606/1706 18008KT P6SM SCT020
     FM160800 18007KT 6SM BR SCT005 OVC020
     FM161000 19009KT 3SM BR OVC005
     FM161500 20012KT P6SM BKN030
     FM161700 21013G20KT P6SM SKC
     FM162200 18008KT P6SM SKC=

USA.gov is the U.S. government's official web portal to all federal, state and local government web resources and services.